createdAt,value
2019-03-13T00:02:52.363Z,1.12
2019-03-13T00:07:56.820Z,1.50
2019-03-13T00:13:02.572Z,1.12
2019-03-13T00:18:07.179Z,0.83
2019-03-13T00:23:12.853Z,0.80
2019-03-13T00:28:17.014Z,1.10
2019-03-13T00:33:21.275Z,1.00
2019-03-13T00:38:25.442Z,1.10
2019-03-13T00:43:32.427Z,0.80
2019-03-13T00:48:37.139Z,1.40
2019-03-13T00:53:42.671Z,1.07
2019-03-13T00:58:47.122Z,0.90
2019-03-13T01:04:28.910Z,0.90
2019-03-13T01:09:33.451Z,1.20
2019-03-13T01:14:37.757Z,1.17
2019-03-13T01:19:42.277Z,1.00
2019-03-13T01:24:48.028Z,1.13
2019-03-13T01:29:52.304Z,1.10
2019-03-13T01:35:05.749Z,1.20
2019-03-13T01:40:10.511Z,0.90
2019-03-13T01:45:16.002Z,1.40
2019-03-13T01:50:20.166Z,1.02
2019-03-13T01:55:26.034Z,0.90
2019-03-13T02:00:30.510Z,1.17
2019-03-13T02:05:36.128Z,1.07
2019-03-13T02:10:40.308Z,1.00
2019-03-13T02:15:46.343Z,1.20
2019-03-13T02:20:50.779Z,0.97
2019-03-13T02:25:55.682Z,0.87
2019-03-13T02:31:00.990Z,1.37
2019-03-13T02:36:06.735Z,1.30
2019-03-13T02:41:11.977Z,1.20
2019-03-13T02:46:16.571Z,0.70
2019-03-13T02:51:20.734Z,0.60
2019-03-13T02:56:25.140Z,0.60
2019-03-13T03:01:48.478Z,0.70
2019-03-13T03:06:53.745Z,0.90
2019-03-13T03:11:57.972Z,0.73
2019-03-13T03:17:02.417Z,0.62
2019-03-13T03:22:06.726Z,0.50
2019-03-13T03:27:11.173Z,0.70
2019-03-13T03:32:15.360Z,0.60
2019-03-13T03:37:20.295Z,0.80
2019-03-13T03:42:24.489Z,0.70
2019-03-13T03:47:29.592Z,0.80
2019-03-13T03:52:33.778Z,0.68
2019-03-13T03:57:38.388Z,0.70
2019-03-13T04:02:42.862Z,0.70
2019-03-13T04:07:47.551Z,0.70
2019-03-13T04:12:51.998Z,0.60
2019-03-13T04:17:57.212Z,0.85
2019-03-13T04:23:01.386Z,0.90
2019-03-13T04:28:06.654Z,0.77
2019-03-13T04:33:11.176Z,0.80
2019-03-13T04:38:16.019Z,0.67
2019-03-13T04:43:20.488Z,0.80
2019-03-13T04:48:25.423Z,0.80
2019-03-13T04:53:29.883Z,0.80
2019-03-13T04:58:34.916Z,0.70
2019-03-13T05:03:39.086Z,0.80
2019-03-13T05:08:46.556Z,0.70
2019-03-13T05:13:51.002Z,0.70
2019-03-13T05:18:55.535Z,0.80
2019-03-13T05:23:59.698Z,0.90
2019-03-13T05:29:03.903Z,0.80
2019-03-13T05:34:08.347Z,0.70
2019-03-13T05:39:12.967Z,0.90
2019-03-13T05:44:17.159Z,1.00
2019-03-13T05:49:21.775Z,1.00
2019-03-13T05:54:25.945Z,0.93
2019-03-13T05:59:30.949Z,0.93
2019-03-13T06:04:35.203Z,0.67
2019-03-13T06:09:40.517Z,1.60
2019-03-13T06:14:44.976Z,1.00
2019-03-13T06:19:50.110Z,1.27
2019-03-13T06:24:54.296Z,0.83
2019-03-13T06:29:59.175Z,0.97
2019-03-13T06:35:03.649Z,0.60
2019-03-13T06:40:08.905Z,1.00
2019-03-13T06:45:13.073Z,0.70
2019-03-13T06:50:18.175Z,0.80
2019-03-13T06:55:22.363Z,0.72
2019-03-13T07:00:44.719Z,1.10
2019-03-13T07:06:03.568Z,0.90
2019-03-13T07:11:24.706Z,0.60
2019-03-13T07:16:46.971Z,0.70
2019-03-13T07:22:09.258Z,1.07
2019-03-13T07:27:38.362Z,0.80
2019-03-13T07:33:07.882Z,0.80
2019-03-13T07:38:35.894Z,0.95
2019-03-13T07:43:53.761Z,0.90
2019-03-13T07:49:20.411Z,0.90
2019-03-13T07:54:42.579Z,1.00
2019-03-13T08:00:25.836Z,1.00
2019-03-13T08:11:31.195Z,1.23
2019-03-13T08:16:47.605Z,0.93
2019-03-13T08:22:10.232Z,1.30
2019-03-13T08:27:39.900Z,1.50
2019-03-13T08:33:12.639Z,1.10
2019-03-13T08:38:23.475Z,1.30
2019-03-13T08:43:59.388Z,1.40
2019-03-13T08:49:33.003Z,1.27
2019-03-13T08:54:55.078Z,0.98
2019-03-13T09:00:35.559Z,1.00
2019-03-13T09:05:59.929Z,0.90
2019-03-13T09:11:22.681Z,0.87
2019-03-13T09:16:45.218Z,1.10
2019-03-13T09:22:15.378Z,0.78
2019-03-13T09:27:41.749Z,0.85
2019-03-13T09:32:56.539Z,1.00
2019-03-13T09:38:29.485Z,0.77
2019-03-13T09:43:47.508Z,0.80
2019-03-13T09:49:00.524Z,1.00
2019-03-13T09:54:29.504Z,0.82
2019-03-13T09:59:52.220Z,0.85
2019-03-13T10:05:21.897Z,0.80
2019-03-13T10:10:46.557Z,0.87
2019-03-13T10:16:10.158Z,0.90
2019-03-13T10:21:46.270Z,1.00
2019-03-13T10:27:16.725Z,0.87
2019-03-13T10:32:56.814Z,0.80
2019-03-13T10:38:14.230Z,0.70
2019-03-13T10:43:33.831Z,1.10
2019-03-13T10:48:53.653Z,0.90
2019-03-13T10:54:17.158Z,0.68
2019-03-13T10:59:49.595Z,0.80
2019-03-13T11:05:15.924Z,0.67
2019-03-13T11:10:35.723Z,0.70
2019-03-13T11:16:02.339Z,1.00
2019-03-13T11:21:29.355Z,0.72
2019-03-13T11:26:52.021Z,1.00
2019-03-13T11:32:08.455Z,0.40
2019-03-13T11:37:32.005Z,0.70
2019-03-13T11:42:59.058Z,0.60
2019-03-13T11:48:21.014Z,0.60
2019-03-13T11:53:58.586Z,0.70
2019-03-13T11:59:24.998Z,0.70
2019-03-13T12:04:50.105Z,0.70
2019-03-13T12:10:16.475Z,0.93
2019-03-13T12:15:35.993Z,0.90
2019-03-13T12:20:46.139Z,1.00
2019-03-13T12:26:12.186Z,0.77
2019-03-13T12:31:39.074Z,0.87
2019-03-13T12:37:01.157Z,0.77
2019-03-13T12:42:14.755Z,1.00
2019-03-13T12:47:41.206Z,0.90
2019-03-13T12:53:17.290Z,0.73
2019-03-13T12:58:39.435Z,0.80
2019-03-13T13:04:06.303Z,0.90
2019-03-13T13:09:28.427Z,0.80
2019-03-13T13:14:55.074Z,1.13
2019-03-13T13:19:59.516Z,1.10
2019-03-13T13:25:04.778Z,1.30
2019-03-13T13:30:09.838Z,0.83
2019-03-13T13:35:14.418Z,1.13
2019-03-13T13:40:20.138Z,0.80
2019-03-13T13:45:38.526Z,0.90
2019-03-13T13:50:42.978Z,0.63
2019-03-13T13:55:49.034Z,1.10
2019-03-13T14:00:53.482Z,0.90
2019-03-13T14:05:59.990Z,0.80
2019-03-13T14:11:04.527Z,1.23
2019-03-13T14:16:10.539Z,1.00
2019-03-13T14:21:15.024Z,1.10
2019-03-13T14:26:21.050Z,0.90
2019-03-13T14:31:25.535Z,0.90
2019-03-13T14:36:32.819Z,1.10
2019-03-13T14:41:37.396Z,1.07
2019-03-13T14:46:41.942Z,0.80
2019-03-13T14:51:46.397Z,0.90
2019-03-13T14:56:50.832Z,0.93
2019-03-13T15:01:55.243Z,0.83
2019-03-13T15:06:59.667Z,0.70
2019-03-13T15:12:11.670Z,0.90
2019-03-13T15:17:16.431Z,0.97
2019-03-13T15:22:20.927Z,0.90
2019-03-13T15:27:25.435Z,1.00
2019-03-13T15:32:30.036Z,1.13
2019-03-13T15:37:34.559Z,1.00
2019-03-13T15:42:39.086Z,1.10
2019-03-13T15:47:44.682Z,1.00
2019-03-13T15:52:49.331Z,1.10
2019-03-13T15:57:53.833Z,1.00
2019-03-13T16:02:58.348Z,0.90
2019-03-13T16:08:04.643Z,1.23
2019-03-13T16:13:09.236Z,1.07
2019-03-13T16:18:13.762Z,1.20
2019-03-13T16:23:18.307Z,1.30
2019-03-13T16:28:22.814Z,0.90
2019-03-13T16:33:27.355Z,1.00
2019-03-13T16:38:31.843Z,1.10
2019-03-13T16:43:37.348Z,0.80
2019-03-13T16:48:41.894Z,1.30
2019-03-13T16:53:46.405Z,0.70
2019-03-13T16:58:50.975Z,1.10
2019-03-13T17:03:55.477Z,1.20
2019-03-13T17:08:59.874Z,0.95
2019-03-13T17:14:04.220Z,1.40
2019-03-13T17:19:08.743Z,1.03
2019-03-13T17:24:13.010Z,0.98
2019-03-13T17:29:17.242Z,0.80
2019-03-13T17:34:21.471Z,1.10
2019-03-13T17:39:25.714Z,1.07
2019-03-13T17:44:29.913Z,1.35
2019-03-13T17:49:34.134Z,1.20
2019-03-13T17:54:38.412Z,1.10
2019-03-13T17:59:42.910Z,1.77
2019-03-13T18:04:47.139Z,1.62
2019-03-13T18:09:51.354Z,1.20
2019-03-13T18:14:55.572Z,1.40
2019-03-13T18:20:00.120Z,1.30
2019-03-13T18:25:04.641Z,1.40
2019-03-13T18:30:11.010Z,1.30
2019-03-13T18:35:15.255Z,1.30
2019-03-13T18:40:20.719Z,1.10
2019-03-13T18:45:25.565Z,0.97
2019-03-13T18:50:30.096Z,1.30
2019-03-13T18:55:34.745Z,1.40
2019-03-13T19:00:39.244Z,1.27
2019-03-13T19:05:43.630Z,1.60
2019-03-13T19:10:47.849Z,1.57
2019-03-13T19:15:52.343Z,1.87
2019-03-13T19:20:58.599Z,1.55
2019-03-13T19:26:03.095Z,0.90
2019-03-13T19:31:07.606Z,1.60
2019-03-13T19:36:12.988Z,2.10
2019-03-13T19:41:17.535Z,2.00
2019-03-13T19:46:22.042Z,1.93
2019-03-13T19:51:26.533Z,1.47
2019-03-13T19:56:31.065Z,1.82
2019-03-13T20:01:35.634Z,2.10
2019-03-13T20:06:42.575Z,1.33
2019-03-13T20:11:47.334Z,1.30
2019-03-13T20:16:52.899Z,1.80
2019-03-13T20:21:57.179Z,1.55
2019-03-13T20:27:01.563Z,1.90
2019-03-13T20:32:06.170Z,1.83
2019-03-13T20:37:11.929Z,1.52
2019-03-13T20:42:16.461Z,1.70
2019-03-13T20:47:21.993Z,1.50
2019-03-13T20:52:26.282Z,1.70
2019-03-13T20:57:32.251Z,1.50
2019-03-13T21:02:36.754Z,1.67
2019-03-13T21:07:45.463Z,1.13
2019-03-13T21:12:50.020Z,2.00
2019-03-13T21:17:55.480Z,1.47
2019-03-13T21:22:59.710Z,1.57
2019-03-13T21:28:06.845Z,0.90
2019-03-13T21:33:11.066Z,1.17
2019-03-13T21:38:16.722Z,0.90
2019-03-13T21:43:21.133Z,1.02
2019-03-13T21:48:25.646Z,1.00
2019-03-13T21:53:30.217Z,0.83
2019-03-13T21:58:36.219Z,1.20
2019-03-13T22:03:40.859Z,0.95
2019-03-13T22:08:45.430Z,0.97
2019-03-13T22:13:49.750Z,0.90
2019-03-13T22:18:53.990Z,0.93
2019-03-13T22:23:59.096Z,0.80
2019-03-13T22:29:03.341Z,0.90
2019-03-13T22:34:07.618Z,1.10
2019-03-13T22:39:11.835Z,1.05
2019-03-13T22:44:16.323Z,0.83
2019-03-13T22:49:20.549Z,1.00
2019-03-13T22:54:26.993Z,1.10
2019-03-13T22:59:31.482Z,0.80
2019-03-13T23:04:36.976Z,0.90
2019-03-13T23:09:41.202Z,0.70
2019-03-13T23:14:46.078Z,0.93
2019-03-13T23:19:50.378Z,1.07
2019-03-13T23:24:54.662Z,0.85
2019-03-13T23:29:58.955Z,0.93
2019-03-13T23:35:04.530Z,0.90
2019-03-13T23:40:09.066Z,0.90
2019-03-13T23:45:13.282Z,0.82
2019-03-13T23:50:17.838Z,0.80
2019-03-13T23:55:24.506Z,0.80
